sensor_id;sensor_type;location;lat;lon;timestamp;P1;durP1;ratioP1;P2;durP2;ratioP2
36443;SDS011;24692;45.642;13.806;2023-03-01T00:01:04;30.00;;;16.53;;
36443;SDS011;24692;45.642;13.806;2023-03-01T00:03:32;28.07;;;17.03;;
36443;SDS011;24692;45.642;13.806;2023-03-01T00:05:59;25.57;;;15.27;;
36443;SDS011;24692;45.642;13.806;2023-03-01T00:08:25;28.30;;;16.30;;
36443;SDS011;24692;45.642;13.806;2023-03-01T00:11:04;26.73;;;16.17;;
36443;SDS011;24692;45.642;13.806;2023-03-01T00:13:36;28.13;;;16.57;;
36443;SDS011;24692;45.642;13.806;2023-03-01T00:16:07;25.77;;;15.23;;
36443;SDS011;24692;45.642;13.806;2023-03-01T00:18:35;28.03;;;16.60;;
36443;SDS011;24692;45.642;13.806;2023-03-01T00:21:01;24.97;;;15.50;;
36443;SDS011;24692;45.642;13.806;2023-03-01T00:23:27;24.07;;;14.37;;
36443;SDS011;24692;45.642;13.806;2023-03-01T00:25:53;26.33;;;15.90;;
36443;SDS011;24692;45.642;13.806;2023-03-01T00:28:19;28.40;;;15.27;;
36443;SDS011;24692;45.642;13.806;2023-03-01T00:30:45;25.40;;;15.47;;
36443;SDS011;24692;45.642;13.806;2023-03-01T00:33:12;27.63;;;14.83;;
36443;SDS011;24692;45.642;13.806;2023-03-01T00:35:38;28.37;;;16.17;;
36443;SDS011;24692;45.642;13.806;2023-03-01T00:38:04;26.67;;;16.10;;
36443;SDS011;24692;45.642;13.806;2023-03-01T00:40:31;24.63;;;15.70;;
36443;SDS011;24692;45.642;13.806;2023-03-01T00:42:58;28.27;;;16.50;;
36443;SDS011;24692;45.642;13.806;2023-03-01T00:45:24;25.83;;;15.93;;
36443;SDS011;24692;45.642;13.806;2023-03-01T00:47:50;26.40;;;15.87;;
36443;SDS011;24692;45.642;13.806;2023-03-01T00:50:16;25.27;;;15.37;;
36443;SDS011;24692;45.642;13.806;2023-03-01T00:52:42;24.73;;;14.43;;
36443;SDS011;24692;45.642;13.806;2023-03-01T00:55:08;25.30;;;14.60;;
36443;SDS011;24692;45.642;13.806;2023-03-01T00:57:34;29.20;;;15.83;;
36443;SDS011;24692;45.642;13.806;2023-03-01T01:00:00;24.57;;;14.83;;
36443;SDS011;24692;45.642;13.806;2023-03-01T01:02:26;28.17;;;15.87;;
36443;SDS011;24692;45.642;13.806;2023-03-01T01:04:51;26.33;;;15.93;;
36443;SDS011;24692;45.642;13.806;2023-03-01T01:07:17;24.40;;;15.17;;
36443;SDS011;24692;45.642;13.806;2023-03-01T01:09:45;24.83;;;15.10;;
36443;SDS011;24692;45.642;13.806;2023-03-01T01:12:11;23.33;;;14.33;;
36443;SDS011;24692;45.642;13.806;2023-03-01T01:14:37;25.63;;;16.07;;
36443;SDS011;24692;45.642;13.806;2023-03-01T01:17:03;26.03;;;14.63;;
36443;SDS011;24692;45.642;13.806;2023-03-01T01:19:29;27.67;;;16.10;;
36443;SDS011;24692;45.642;13.806;2023-03-01T01:21:55;30.37;;;15.37;;
36443;SDS011;24692;45.642;13.806;2023-03-01T01:24:20;23.57;;;14.40;;
36443;SDS011;24692;45.642;13.806;2023-03-01T01:26:46;23.67;;;14.30;;
36443;SDS011;24692;45.642;13.806;2023-03-01T01:29:12;24.73;;;15.53;;
36443;SDS011;24692;45.642;13.806;2023-03-01T01:31:38;25.80;;;15.53;;
36443;SDS011;24692;45.642;13.806;2023-03-01T01:34:06;27.60;;;15.13;;
36443;SDS011;24692;45.642;13.806;2023-03-01T01:36:33;24.40;;;14.60;;
36443;SDS011;24692;45.642;13.806;2023-03-01T01:38:59;25.87;;;15.47;;
36443;SDS011;24692;45.642;13.806;2023-03-01T01:41:26;26.83;;;15.33;;
36443;SDS011;24692;45.642;13.806;2023-03-01T01:49:25;28.17;;;14.87;;
36443;SDS011;24692;45.642;13.806;2023-03-01T01:52:09;23.50;;;14.67;;
36443;SDS011;24692;45.642;13.806;2023-03-01T01:54:43;27.47;;;14.97;;
36443;SDS011;24692;45.642;13.806;2023-03-01T01:57:18;27.17;;;15.83;;
36443;SDS011;24692;45.642;13.806;2023-03-01T01:59:51;26.47;;;14.67;;
36443;SDS011;24692;45.642;13.806;2023-03-01T02:02:19;24.10;;;14.40;;
36443;SDS011;24692;45.642;13.806;2023-03-01T02:04:46;25.17;;;14.80;;
36443;SDS011;24692;45.642;13.806;2023-03-01T02:07:19;26.30;;;15.13;;
36443;SDS011;24692;45.642;13.806;2023-03-01T02:09:48;23.20;;;14.73;;
36443;SDS011;24692;45.642;13.806;2023-03-01T02:12:16;29.40;;;15.00;;
36443;SDS011;24692;45.642;13.806;2023-03-01T02:14:45;24.03;;;14.43;;
36443;SDS011;24692;45.642;13.806;2023-03-01T02:17:11;26.50;;;14.33;;
36443;SDS011;24692;45.642;13.806;2023-03-01T02:22:25;23.63;;;14.20;;
36443;SDS011;24692;45.642;13.806;2023-03-01T02:27:36;24.37;;;15.67;;
36443;SDS011;24692;45.642;13.806;2023-03-01T02:30:11;26.90;;;14.57;;
36443;SDS011;24692;45.642;13.806;2023-03-01T02:32:40;23.07;;;13.47;;
36443;SDS011;24692;45.642;13.806;2023-03-01T02:35:08;25.90;;;14.53;;
36443;SDS011;24692;45.642;13.806;2023-03-01T02:37:36;26.13;;;15.13;;
36443;SDS011;24692;45.642;13.806;2023-03-01T02:40:04;24.80;;;14.43;;
36443;SDS011;24692;45.642;13.806;2023-03-01T02:42:36;24.83;;;15.10;;
36443;SDS011;24692;45.642;13.806;2023-03-01T02:45:09;25.57;;;14.47;;
36443;SDS011;24692;45.642;13.806;2023-03-01T02:47:35;25.53;;;14.47;;
36443;SDS011;24692;45.642;13.806;2023-03-01T02:50:01;25.87;;;14.90;;
36443;SDS011;24692;45.642;13.806;2023-03-01T02:55:08;22.70;;;15.10;;
36443;SDS011;24692;45.642;13.806;2023-03-01T02:57:37;21.83;;;13.67;;
36443;SDS011;24692;45.642;13.806;2023-03-01T03:00:07;25.57;;;14.43;;
36443;SDS011;24692;45.642;13.806;2023-03-01T03:02:36;23.33;;;14.93;;
36443;SDS011;24692;45.642;13.806;2023-03-01T03:05:06;22.80;;;13.67;;
36443;SDS011;24692;45.642;13.806;2023-03-01T03:07:33;21.83;;;14.70;;
36443;SDS011;24692;45.642;13.806;2023-03-01T03:10:02;22.73;;;13.70;;
36443;SDS011;24692;45.642;13.806;2023-03-01T03:12:28;23.00;;;14.60;;
36443;SDS011;24692;45.642;13.806;2023-03-01T03:14:54;25.37;;;14.77;;
36443;SDS011;24692;45.642;13.806;2023-03-01T03:17:20;26.83;;;15.47;;
36443;SDS011;24692;45.642;13.806;2023-03-01T03:19:45;23.30;;;13.87;;
36443;SDS011;24692;45.642;13.806;2023-03-01T03:22:12;27.73;;;14.17;;
36443;SDS011;24692;45.642;13.806;2023-03-01T03:24:37;21.93;;;13.43;;
36443;SDS011;24692;45.642;13.806;2023-03-01T03:27:04;23.00;;;14.10;;
36443;SDS011;24692;45.642;13.806;2023-03-01T03:29:30;22.23;;;14.10;;
36443;SDS011;24692;45.642;13.806;2023-03-01T03:31:56;24.20;;;14.93;;
36443;SDS011;24692;45.642;13.806;2023-03-01T03:34:22;23.23;;;14.33;;
36443;SDS011;24692;45.642;13.806;2023-03-01T03:36:48;22.87;;;13.70;;
36443;SDS011;24692;45.642;13.806;2023-03-01T03:39:21;25.60;;;14.67;;
36443;SDS011;24692;45.642;13.806;2023-03-01T03:41:48;23.53;;;14.13;;
36443;SDS011;24692;45.642;13.806;2023-03-01T03:44:13;22.73;;;14.07;;
36443;SDS011;24692;45.642;13.806;2023-03-01T03:46:39;22.33;;;14.33;;
36443;SDS011;24692;45.642;13.806;2023-03-01T03:49:05;27.20;;;13.77;;
36443;SDS011;24692;45.642;13.806;2023-03-01T03:51:30;22.67;;;13.80;;
36443;SDS011;24692;45.642;13.806;2023-03-01T03:53:56;25.37;;;14.67;;
36443;SDS011;24692;45.642;13.806;2023-03-01T03:56:22;20.87;;;12.70;;
36443;SDS011;24692;45.642;13.806;2023-03-01T03:58:50;23.67;;;13.83;;
36443;SDS011;24692;45.642;13.806;2023-03-01T04:01:19;22.60;;;14.50;;
36443;SDS011;24692;45.642;13.806;2023-03-01T04:03:45;22.73;;;14.17;;
36443;SDS011;24692;45.642;13.806;2023-03-01T04:06:12;23.97;;;14.60;;
36443;SDS011;24692;45.642;13.806;2023-03-01T04:08:38;25.77;;;15.23;;
36443;SDS011;24692;45.642;13.806;2023-03-01T04:11:05;24.40;;;14.80;;
36443;SDS011;24692;45.642;13.806;2023-03-01T04:13:50;21.77;;;13.70;;
36443;SDS011;24692;45.642;13.806;2023-03-01T04:16:17;19.40;;;12.63;;
36443;SDS011;24692;45.642;13.806;2023-03-01T04:18:43;23.03;;;13.40;;
36443;SDS011;24692;45.642;13.806;2023-03-01T04:21:09;24.17;;;14.67;;
36443;SDS011;24692;45.642;13.806;2023-03-01T04:23:36;21.50;;;13.77;;
36443;SDS011;24692;45.642;13.806;2023-03-01T04:26:02;21.17;;;13.20;;
36443;SDS011;24692;45.642;13.806;2023-03-01T04:28:29;24.57;;;14.70;;
36443;SDS011;24692;45.642;13.806;2023-03-01T04:31:19;23.13;;;14.20;;
36443;SDS011;24692;45.642;13.806;2023-03-01T04:33:50;21.03;;;14.30;;
36443;SDS011;24692;45.642;13.806;2023-03-01T04:36:21;23.80;;;14.37;;
36443;SDS011;24692;45.642;13.806;2023-03-01T04:38:51;21.80;;;14.03;;
36443;SDS011;24692;45.642;13.806;2023-03-01T04:41:18;24.90;;;15.07;;
36443;SDS011;24692;45.642;13.806;2023-03-01T04:43:45;25.70;;;13.80;;
36443;SDS011;24692;45.642;13.806;2023-03-01T04:46:13;21.87;;;14.13;;
36443;SDS011;24692;45.642;13.806;2023-03-01T04:48:41;20.93;;;12.67;;
36443;SDS011;24692;45.642;13.806;2023-03-01T04:51:08;21.07;;;13.30;;
36443;SDS011;24692;45.642;13.806;2023-03-01T04:53:34;22.50;;;14.47;;
36443;SDS011;24692;45.642;13.806;2023-03-01T04:56:03;23.10;;;14.03;;
36443;SDS011;24692;45.642;13.806;2023-03-01T04:58:29;24.07;;;14.30;;
36443;SDS011;24692;45.642;13.806;2023-03-01T05:00:55;21.30;;;13.53;;
36443;SDS011;24692;45.642;13.806;2023-03-01T05:03:21;21.47;;;13.93;;
36443;SDS011;24692;45.642;13.806;2023-03-01T05:05:48;22.20;;;12.43;;
36443;SDS011;24692;45.642;13.806;2023-03-01T05:08:15;23.10;;;13.50;;
36443;SDS011;24692;45.642;13.806;2023-03-01T05:10:47;22.30;;;14.33;;
36443;SDS011;24692;45.642;13.806;2023-03-01T05:13:15;25.13;;;14.90;;
36443;SDS011;24692;45.642;13.806;2023-03-01T05:15:46;23.07;;;14.60;;
36443;SDS011;24692;45.642;13.806;2023-03-01T05:18:14;22.83;;;14.57;;
36443;SDS011;24692;45.642;13.806;2023-03-01T05:20:40;23.60;;;13.83;;
36443;SDS011;24692;45.642;13.806;2023-03-01T05:23:06;21.43;;;12.90;;
36443;SDS011;24692;45.642;13.806;2023-03-01T05:25:34;24.57;;;14.43;;
36443;SDS011;24692;45.642;13.806;2023-03-01T05:28:05;23.83;;;14.13;;
36443;SDS011;24692;45.642;13.806;2023-03-01T05:30:33;24.27;;;14.50;;
36443;SDS011;24692;45.642;13.806;2023-03-01T05:32:59;24.67;;;14.13;;
36443;SDS011;24692;45.642;13.806;2023-03-01T05:35:25;21.00;;;13.30;;
36443;SDS011;24692;45.642;13.806;2023-03-01T05:37:51;27.87;;;14.87;;
36443;SDS011;24692;45.642;13.806;2023-03-01T05:40:18;23.07;;;14.60;;
36443;SDS011;24692;45.642;13.806;2023-03-01T05:42:47;24.87;;;14.87;;
36443;SDS011;24692;45.642;13.806;2023-03-01T05:45:15;22.20;;;14.40;;
36443;SDS011;24692;45.642;13.806;2023-03-01T05:47:42;23.57;;;14.60;;
36443;SDS011;24692;45.642;13.806;2023-03-01T05:50:11;23.93;;;15.10;;
36443;SDS011;24692;45.642;13.806;2023-03-01T05:52:36;22.97;;;14.47;;
36443;SDS011;24692;45.642;13.806;2023-03-01T05:55:02;20.73;;;13.87;;
36443;SDS011;24692;45.642;13.806;2023-03-01T05:57:28;22.13;;;13.33;;
36443;SDS011;24692;45.642;13.806;2023-03-01T05:59:54;23.40;;;13.20;;
36443;SDS011;24692;45.642;13.806;2023-03-01T06:02:20;23.77;;;14.67;;
36443;SDS011;24692;45.642;13.806;2023-03-01T06:04:46;22.77;;;13.77;;
36443;SDS011;24692;45.642;13.806;2023-03-01T06:07:13;21.87;;;13.67;;
36443;SDS011;24692;45.642;13.806;2023-03-01T06:09:41;20.87;;;13.60;;
36443;SDS011;24692;45.642;13.806;2023-03-01T06:12:11;24.30;;;14.43;;
36443;SDS011;24692;45.642;13.806;2023-03-01T06:14:38;23.70;;;14.67;;
36443;SDS011;24692;45.642;13.806;2023-03-01T06:17:06;21.03;;;12.40;;
36443;SDS011;24692;45.642;13.806;2023-03-01T06:19:33;21.33;;;14.27;;
36443;SDS011;24692;45.642;13.806;2023-03-01T06:22:01;22.07;;;14.67;;
36443;SDS011;24692;45.642;13.806;2023-03-01T06:24:29;22.70;;;13.67;;
36443;SDS011;24692;45.642;13.806;2023-03-01T06:26:56;20.37;;;13.37;;
36443;SDS011;24692;45.642;13.806;2023-03-01T06:29:23;22.13;;;13.90;;
36443;SDS011;24692;45.642;13.806;2023-03-01T06:31:49;23.17;;;14.10;;
36443;SDS011;24692;45.642;13.806;2023-03-01T06:34:27;24.30;;;13.17;;
36443;SDS011;24692;45.642;13.806;2023-03-01T06:36:53;23.00;;;11.77;;
36443;SDS011;24692;45.642;13.806;2023-03-01T06:39:18;19.03;;;11.40;;
36443;SDS011;24692;45.642;13.806;2023-03-01T06:41:44;23.37;;;12.97;;
36443;SDS011;24692;45.642;13.806;2023-03-01T06:44:11;22.57;;;14.10;;
36443;SDS011;24692;45.642;13.806;2023-03-01T06:46:38;22.10;;;13.93;;
36443;SDS011;24692;45.642;13.806;2023-03-01T06:49:05;24.03;;;14.07;;
36443;SDS011;24692;45.642;13.806;2023-03-01T06:51:35;23.63;;;12.27;;
36443;SDS011;24692;45.642;13.806;2023-03-01T06:54:12;25.93;;;14.90;;
36443;SDS011;24692;45.642;13.806;2023-03-01T06:56:41;23.97;;;14.17;;
36443;SDS011;24692;45.642;13.806;2023-03-01T06:59:15;26.07;;;14.33;;
36443;SDS011;24692;45.642;13.806;2023-03-01T07:01:41;28.40;;;14.97;;
36443;SDS011;24692;45.642;13.806;2023-03-01T07:04:11;22.50;;;14.57;;
36443;SDS011;24692;45.642;13.806;2023-03-01T07:06:37;23.83;;;14.43;;
36443;SDS011;24692;45.642;13.806;2023-03-01T07:09:04;22.50;;;14.50;;
36443;SDS011;24692;45.642;13.806;2023-03-01T07:11:35;26.70;;;15.93;;
36443;SDS011;24692;45.642;13.806;2023-03-01T07:14:00;23.03;;;14.30;;
36443;SDS011;24692;45.642;13.806;2023-03-01T07:16:26;22.23;;;14.30;;
36443;SDS011;24692;45.642;13.806;2023-03-01T07:18:53;23.33;;;14.43;;
36443;SDS011;24692;45.642;13.806;2023-03-01T07:21:20;24.93;;;14.87;;
36443;SDS011;24692;45.642;13.806;2023-03-01T07:23:49;21.50;;;14.07;;
36443;SDS011;24692;45.642;13.806;2023-03-01T07:26:17;25.10;;;14.40;;
36443;SDS011;24692;45.642;13.806;2023-03-01T07:28:44;24.13;;;13.60;;
36443;SDS011;24692;45.642;13.806;2023-03-01T07:31:10;21.53;;;13.93;;
36443;SDS011;24692;45.642;13.806;2023-03-01T07:33:39;22.03;;;13.20;;
36443;SDS011;24692;45.642;13.806;2023-03-01T07:36:06;19.27;;;13.23;;
36443;SDS011;24692;45.642;13.806;2023-03-01T07:38:33;19.60;;;11.33;;
36443;SDS011;24692;45.642;13.806;2023-03-01T07:41:02;18.70;;;12.77;;
36443;SDS011;24692;45.642;13.806;2023-03-01T07:43:29;21.97;;;12.53;;
36443;SDS011;24692;45.642;13.806;2023-03-01T07:45:57;23.20;;;12.77;;
36443;SDS011;24692;45.642;13.806;2023-03-01T07:48:25;25.40;;;13.43;;
36443;SDS011;24692;45.642;13.806;2023-03-01T07:50:51;21.33;;;13.67;;
36443;SDS011;24692;45.642;13.806;2023-03-01T07:53:16;22.27;;;14.50;;
36443;SDS011;24692;45.642;13.806;2023-03-01T07:55:42;24.80;;;14.83;;
36443;SDS011;24692;45.642;13.806;2023-03-01T07:58:07;29.60;;;16.17;;
36443;SDS011;24692;45.642;13.806;2023-03-01T08:00:33;27.90;;;15.90;;
36443;SDS011;24692;45.642;13.806;2023-03-01T08:02:59;25.13;;;15.03;;
36443;SDS011;24692;45.642;13.806;2023-03-01T08:05:26;25.00;;;15.77;;
36443;SDS011;24692;45.642;13.806;2023-03-01T08:07:53;25.93;;;14.73;;
36443;SDS011;24692;45.642;13.806;2023-03-01T08:10:19;23.30;;;14.40;;
36443;SDS011;24692;45.642;13.806;2023-03-01T08:12:46;24.00;;;14.70;;
36443;SDS011;24692;45.642;13.806;2023-03-01T08:15:12;27.13;;;15.73;;
36443;SDS011;24692;45.642;13.806;2023-03-01T08:17:37;23.67;;;14.97;;
36443;SDS011;24692;45.642;13.806;2023-03-01T08:20:03;26.37;;;14.43;;
36443;SDS011;24692;45.642;13.806;2023-03-01T08:22:31;24.63;;;14.67;;
36443;SDS011;24692;45.642;13.806;2023-03-01T08:24:57;26.13;;;14.07;;
36443;SDS011;24692;45.642;13.806;2023-03-01T08:27:23;22.80;;;13.63;;
36443;SDS011;24692;45.642;13.806;2023-03-01T08:29:48;22.20;;;13.43;;
36443;SDS011;24692;45.642;13.806;2023-03-01T08:32:14;19.43;;;12.20;;
36443;SDS011;24692;45.642;13.806;2023-03-01T08:34:40;19.20;;;12.73;;
36443;SDS011;24692;45.642;13.806;2023-03-01T08:37:06;17.50;;;12.90;;
36443;SDS011;24692;45.642;13.806;2023-03-01T08:39:31;23.20;;;12.57;;
36443;SDS011;24692;45.642;13.806;2023-03-01T08:41:57;19.50;;;12.50;;
36443;SDS011;24692;45.642;13.806;2023-03-01T08:44:23;23.53;;;12.23;;
36443;SDS011;24692;45.642;13.806;2023-03-01T08:46:49;19.33;;;11.77;;
36443;SDS011;24692;45.642;13.806;2023-03-01T08:49:17;17.17;;;10.87;;
36443;SDS011;24692;45.642;13.806;2023-03-01T08:51:45;13.20;;;8.63;;
36443;SDS011;24692;45.642;13.806;2023-03-01T08:54:13;16.00;;;9.73;;
36443;SDS011;24692;45.642;13.806;2023-03-01T08:56:43;14.80;;;10.40;;
36443;SDS011;24692;45.642;13.806;2023-03-01T08:59:10;13.60;;;10.00;;
36443;SDS011;24692;45.642;13.806;2023-03-01T09:01:36;20.67;;;11.57;;
36443;SDS011;24692;45.642;13.806;2023-03-01T09:04:03;18.80;;;11.97;;
36443;SDS011;24692;45.642;13.806;2023-03-01T09:06:33;15.67;;;10.83;;
36443;SDS011;24692;45.642;13.806;2023-03-01T09:08:59;15.83;;;10.40;;
36443;SDS011;24692;45.642;13.806;2023-03-01T09:11:25;13.73;;;9.60;;
36443;SDS011;24692;45.642;13.806;2023-03-01T09:13:52;13.37;;;9.23;;
36443;SDS011;24692;45.642;13.806;2023-03-01T09:16:19;15.70;;;9.23;;
36443;SDS011;24692;45.642;13.806;2023-03-01T09:18:48;18.70;;;9.40;;
36443;SDS011;24692;45.642;13.806;2023-03-01T09:21:19;12.47;;;8.87;;
36443;SDS011;24692;45.642;13.806;2023-03-01T09:23:47;15.07;;;9.33;;
36443;SDS011;24692;45.642;13.806;2023-03-01T09:26:15;14.07;;;8.87;;
36443;SDS011;24692;45.642;13.806;2023-03-01T09:28:46;13.67;;;8.27;;
36443;SDS011;24692;45.642;13.806;2023-03-01T09:31:14;14.57;;;9.13;;
36443;SDS011;24692;45.642;13.806;2023-03-01T09:33:41;13.07;;;8.63;;
36443;SDS011;24692;45.642;13.806;2023-03-01T09:36:08;13.63;;;9.13;;
36443;SDS011;24692;45.642;13.806;2023-03-01T09:38:37;14.27;;;9.57;;
36443;SDS011;24692;45.642;13.806;2023-03-01T09:41:08;15.23;;;9.53;;
36443;SDS011;24692;45.642;13.806;2023-03-01T09:43:46;17.97;;;10.00;;
36443;SDS011;24692;45.642;13.806;2023-03-01T09:46:19;14.57;;;10.50;;
36443;SDS011;24692;45.642;13.806;2023-03-01T09:49:01;14.70;;;9.97;;
36443;SDS011;24692;45.642;13.806;2023-03-01T09:51:34;17.30;;;10.80;;
36443;SDS011;24692;45.642;13.806;2023-03-01T09:54:04;16.43;;;10.47;;
36443;SDS011;24692;45.642;13.806;2023-03-01T09:56:36;16.60;;;11.13;;
36443;SDS011;24692;45.642;13.806;2023-03-01T09:59:21;19.50;;;12.23;;
36443;SDS011;24692;45.642;13.806;2023-03-01T10:02:23;18.97;;;11.67;;
36443;SDS011;24692;45.642;13.806;2023-03-01T10:10:40;19.23;;;11.13;;
36443;SDS011;24692;45.642;13.806;2023-03-01T10:13:18;17.77;;;11.40;;
36443;SDS011;24692;45.642;13.806;2023-03-01T10:15:56;17.37;;;11.03;;
36443;SDS011;24692;45.642;13.806;2023-03-01T10:18:27;17.60;;;11.07;;
36443;SDS011;24692;45.642;13.806;2023-03-01T10:21:00;15.47;;;10.80;;
36443;SDS011;24692;45.642;13.806;2023-03-01T10:23:28;21.07;;;12.10;;
36443;SDS011;24692;45.642;13.806;2023-03-01T10:26:02;16.40;;;10.20;;
36443;SDS011;24692;45.642;13.806;2023-03-01T10:29:01;15.93;;;9.97;;
36443;SDS011;24692;45.642;13.806;2023-03-01T10:31:51;17.73;;;9.93;;
36443;SDS011;24692;45.642;13.806;2023-03-01T10:34:18;17.20;;;10.57;;
36443;SDS011;24692;45.642;13.806;2023-03-01T10:36:48;14.37;;;9.77;;
36443;SDS011;24692;45.642;13.806;2023-03-01T10:39:20;15.10;;;10.03;;
36443;SDS011;24692;45.642;13.806;2023-03-01T10:47:39;14.83;;;9.20;;
36443;SDS011;24692;45.642;13.806;2023-03-01T10:50:02;13.90;;;9.27;;
36443;SDS011;24692;45.642;13.806;2023-03-01T10:52:34;14.53;;;9.00;;
36443;SDS011;24692;45.642;13.806;2023-03-01T10:55:47;12.57;;;7.80;;
36443;SDS011;24692;45.642;13.806;2023-03-01T10:58:05;14.43;;;7.73;;
36443;SDS011;24692;45.642;13.806;2023-03-01T11:00:32;9.97;;;7.53;;
36443;SDS011;24692;45.642;13.806;2023-03-01T11:05:24;11.53;;;8.17;;
36443;SDS011;24692;45.642;13.806;2023-03-01T11:07:57;9.57;;;6.70;;
36443;SDS011;24692;45.642;13.806;2023-03-01T11:10:28;9.63;;;6.33;;
36443;SDS011;24692;45.642;13.806;2023-03-01T11:15:39;9.17;;;6.53;;
36443;SDS011;24692;45.642;13.806;2023-03-01T11:18:05;10.03;;;7.23;;
36443;SDS011;24692;45.642;13.806;2023-03-01T11:20:47;9.67;;;7.10;;
36443;SDS011;24692;45.642;13.806;2023-03-01T11:23:16;9.13;;;6.77;;
36443;SDS011;24692;45.642;13.806;2023-03-01T11:25:46;8.47;;;6.33;;
36443;SDS011;24692;45.642;13.806;2023-03-01T11:28:33;8.77;;;6.67;;
36443;SDS011;24692;45.642;13.806;2023-03-01T11:38:46;8.80;;;6.70;;
36443;SDS011;24692;45.642;13.806;2023-03-01T11:43:47;13.20;;;7.23;;
36443;SDS011;24692;45.642;13.806;2023-03-01T12:08:41;10.47;;;5.90;;
36443;SDS011;24692;45.642;13.806;2023-03-01T12:17:18;8.90;;;4.93;;
36443;SDS011;24692;45.642;13.806;2023-03-01T12:20:12;9.73;;;5.27;;
36443;SDS011;24692;45.642;13.806;2023-03-01T12:23:12;8.13;;;4.53;;
36443;SDS011;24692;45.642;13.806;2023-03-01T12:25:51;8.07;;;4.50;;
36443;SDS011;24692;45.642;13.806;2023-03-01T12:33:59;5.47;;;4.03;;
36443;SDS011;24692;45.642;13.806;2023-03-01T12:36:49;4.17;;;3.00;;
36443;SDS011;24692;45.642;13.806;2023-03-01T12:39:32;5.70;;;4.33;;
36443;SDS011;24692;45.642;13.806;2023-03-01T12:42:15;8.77;;;4.33;;
36443;SDS011;24692;45.642;13.806;2023-03-01T12:53:13;6.77;;;4.80;;
36443;SDS011;24692;45.642;13.806;2023-03-01T12:55:52;8.50;;;5.43;;
36443;SDS011;24692;45.642;13.806;2023-03-01T12:58:57;6.27;;;4.90;;
36443;SDS011;24692;45.642;13.806;2023-03-01T13:18:02;6.33;;;4.50;;
36443;SDS011;24692;45.642;13.806;2023-03-01T13:23:11;7.60;;;4.50;;
36443;SDS011;24692;45.642;13.806;2023-03-01T13:31:02;7.30;;;4.73;;
36443;SDS011;24692;45.642;13.806;2023-03-01T13:35:59;7.47;;;4.73;;
36443;SDS011;24692;45.642;13.806;2023-03-01T13:41:09;5.00;;;4.07;;
36443;SDS011;24692;45.642;13.806;2023-03-01T13:43:35;5.40;;;4.00;;
36443;SDS011;24692;45.642;13.806;2023-03-01T13:46:09;7.67;;;4.10;;
36443;SDS011;24692;45.642;13.806;2023-03-01T13:48:42;8.60;;;4.43;;
36443;SDS011;24692;45.642;13.806;2023-03-01T13:51:10;8.63;;;4.30;;
36443;SDS011;24692;45.642;13.806;2023-03-01T13:53:39;6.40;;;4.43;;
36443;SDS011;24692;45.642;13.806;2023-03-01T13:56:12;4.10;;;3.50;;
36443;SDS011;24692;45.642;13.806;2023-03-01T13:58:46;3.57;;;3.10;;
36443;SDS011;24692;45.642;13.806;2023-03-01T14:01:32;4.03;;;3.13;;
36443;SDS011;24692;45.642;13.806;2023-03-01T14:03:59;6.47;;;3.97;;
36443;SDS011;24692;45.642;13.806;2023-03-01T14:06:26;5.07;;;3.57;;
36443;SDS011;24692;45.642;13.806;2023-03-01T14:09:03;6.80;;;4.23;;
36443;SDS011;24692;45.642;13.806;2023-03-01T14:19:29;5.83;;;3.67;;
36443;SDS011;24692;45.642;13.806;2023-03-01T14:22:00;3.80;;;3.23;;
36443;SDS011;24692;45.642;13.806;2023-03-01T14:24:31;4.47;;;3.37;;
36443;SDS011;24692;45.642;13.806;2023-03-01T14:27:02;5.17;;;3.40;;
36443;SDS011;24692;45.642;13.806;2023-03-01T14:29:37;5.50;;;3.47;;
36443;SDS011;24692;45.642;13.806;2023-03-01T14:32:11;4.17;;;3.20;;
36443;SDS011;24692;45.642;13.806;2023-03-01T14:34:44;4.03;;;3.17;;
36443;SDS011;24692;45.642;13.806;2023-03-01T14:37:16;6.37;;;3.43;;
36443;SDS011;24692;45.642;13.806;2023-03-01T14:39:43;5.27;;;2.93;;
36443;SDS011;24692;45.642;13.806;2023-03-01T14:42:08;4.77;;;3.10;;
36443;SDS011;24692;45.642;13.806;2023-03-01T14:44:34;4.77;;;3.40;;
36443;SDS011;24692;45.642;13.806;2023-03-01T14:47:02;4.43;;;3.30;;
36443;SDS011;24692;45.642;13.806;2023-03-01T14:49:29;4.53;;;3.40;;
36443;SDS011;24692;45.642;13.806;2023-03-01T14:51:57;5.13;;;3.27;;
36443;SDS011;24692;45.642;13.806;2023-03-01T14:54:36;3.53;;;3.00;;
36443;SDS011;24692;45.642;13.806;2023-03-01T14:57:12;3.03;;;2.73;;
36443;SDS011;24692;45.642;13.806;2023-03-01T14:59:40;6.07;;;2.70;;
36443;SDS011;24692;45.642;13.806;2023-03-01T15:02:25;5.37;;;3.13;;
36443;SDS011;24692;45.642;13.806;2023-03-01T15:04:54;9.20;;;3.30;;
36443;SDS011;24692;45.642;13.806;2023-03-01T15:07:26;3.47;;;2.87;;
36443;SDS011;24692;45.642;13.806;2023-03-01T15:09:56;5.17;;;2.50;;
36443;SDS011;24692;45.642;13.806;2023-03-01T15:15:00;2.47;;;2.10;;
36443;SDS011;24692;45.642;13.806;2023-03-01T15:17:27;3.30;;;1.80;;
36443;SDS011;24692;45.642;13.806;2023-03-01T15:19:54;1.90;;;1.70;;
36443;SDS011;24692;45.642;13.806;2023-03-01T15:22:20;2.63;;;2.00;;
36443;SDS011;24692;45.642;13.806;2023-03-01T15:24:48;2.03;;;1.83;;
36443;SDS011;24692;45.642;13.806;2023-03-01T15:27:18;2.67;;;1.87;;
36443;SDS011;24692;45.642;13.806;2023-03-01T15:34:57;2.13;;;1.87;;
36443;SDS011;24692;45.642;13.806;2023-03-01T15:40:26;2.53;;;1.60;;
36443;SDS011;24692;45.642;13.806;2023-03-01T15:43:04;2.47;;;1.90;;
36443;SDS011;24692;45.642;13.806;2023-03-01T15:45:31;2.03;;;1.60;;
36443;SDS011;24692;45.642;13.806;2023-03-01T15:48:04;2.00;;;1.80;;
36443;SDS011;24692;45.642;13.806;2023-03-01T15:50:40;1.60;;;1.50;;
36443;SDS011;24692;45.642;13.806;2023-03-01T15:53:07;1.60;;;1.50;;
36443;SDS011;24692;45.642;13.806;2023-03-01T15:55:36;1.93;;;1.80;;
36443;SDS011;24692;45.642;13.806;2023-03-01T15:58:04;1.50;;;1.40;;
36443;SDS011;24692;45.642;13.806;2023-03-01T16:00:40;1.60;;;1.50;;
36443;SDS011;24692;45.642;13.806;2023-03-01T16:03:06;2.93;;;2.10;;
36443;SDS011;24692;45.642;13.806;2023-03-01T16:05:35;1.97;;;1.77;;
36443;SDS011;24692;45.642;13.806;2023-03-01T16:08:01;1.87;;;1.67;;
36443;SDS011;24692;45.642;13.806;2023-03-01T16:10:27;1.97;;;1.80;;
36443;SDS011;24692;45.642;13.806;2023-03-01T16:12:54;2.40;;;2.20;;
36443;SDS011;24692;45.642;13.806;2023-03-01T16:15:20;5.53;;;3.23;;
36443;SDS011;24692;45.642;13.806;2023-03-01T16:17:48;2.37;;;2.10;;
36443;SDS011;24692;45.642;13.806;2023-03-01T16:20:14;3.00;;;2.70;;
36443;SDS011;24692;45.642;13.806;2023-03-01T16:22:41;2.60;;;2.40;;
36443;SDS011;24692;45.642;13.806;2023-03-01T16:25:08;3.07;;;1.60;;
36443;SDS011;24692;45.642;13.806;2023-03-01T16:27:35;1.70;;;1.30;;
36443;SDS011;24692;45.642;13.806;2023-03-01T16:30:01;3.00;;;1.37;;
36443;SDS011;24692;45.642;13.806;2023-03-01T16:32:27;1.40;;;1.30;;
36443;SDS011;24692;45.642;13.806;2023-03-01T16:34:53;1.30;;;1.20;;
36443;SDS011;24692;45.642;13.806;2023-03-01T16:37:18;1.30;;;1.20;;
36443;SDS011;24692;45.642;13.806;2023-03-01T16:39:44;1.40;;;1.30;;